Brandon, Minnesota
Current Conditions -  °F | °C
As of 11:45 AM on Thursday 30 Oct 2014 (Local Time) from KAXN Reporting Station
Overcast Overcast  
Wind Chill: 35°   Ceiling: 1000
Heat Index: 41°   Visibility: 10mi
Dew Point: 37°   Wind: 10mph
Humidity: 86%   Direction: 10°N
Pressure: 30.14"   Gusts: NA
Location:  45.97°N, 95.6°W
Report Text: KAXN 301645Z AUTO 01009KT 10SM BKN010 OVC018 05/03 A3014 RMK AO2 T00500028
Loading
Personal Weather Stations






























Interactive Weather Map
Tropical Storm Tracking
New forecast layout! Learn more

10-Day Weather Forecast

Advertisements
Track Severe Weather on mobile